TPOK1: Kansas River, State-Line, KS

                                SHEF ID:       TPOK1     MARAIS DES CYGNES R NR KS-MO ST
STATION TYPE:

STAGE STAGE(2) RIV-FLOW BAT-LOAD
ft ft cfs volt
Ccp-Rev Ccp-Rev Ccp-Rev Ccp-Rev
(America/Chicago)
07/21 00:00 5.71 5.65 807 12.50
07/21 01:00 5.71 5.67 807 12.48
07/21 02:00 5.71 5.64 807 12.46
07/21 03:00 5.72 5.64 812 12.44
07/21 04:00 5.68 5.63 793 12.44
07/21 05:00 5.70 5.61 803 12.43
07/21 06:00 5.69 5.63 798 12.40
07/21 07:00 5.70 5.63 803 12.40
07/21 08:00 5.68 5.61 793 12.41
07/21 09:00 5.68 5.62 793 12.72
07/21 10:00 5.68 5.62 793 11.74
07/21 11:00 5.67 5.59 788 12.89
07/21 12:00 5.67 5.60 788 13.35
07/21 13:00 5.66 5.61 783 13.25
07/21 14:00 5.63 5.58 768 13.19
07/21 15:00 5.64 5.57 773 13.01
07/21 16:00 5.63 5.58 768 12.93
07/21 17:00 5.62 5.57 763 12.81
07/21 18:00 5.64 5.57 773 11.58
07/21 19:00 5.63 5.57 768 12.65
07/21 20:00 5.62 5.55 763 12.60
07/21 21:00 5.61 5.55 758 12.56
07/21 22:00 5.63 5.54 768 12.53
07/21 23:00 5.63 5.55 768 12.50
Data processed at Wed 22Jul2026 04:52 GMT

NOTICE: If you are parsing this page

Please convert to using our Data API. Starting early 2026 we will be migrating to: https://water.usace.army.mil with modern pages rendered in JavaScript. When this migration completes you will no longer be able to scrape this page! CWMSDataAPI (CDA)

Timeseries IDs (TSIDs)

TSIDs used from left to right in the data table
MKSL.Stage.Inst.1Hour.0.Ccp-Rev
MKSL.Stage-Alt.Inst.1Hour.0.Ccp-Rev
MKSL.Flow.Inst.1Hour.0.Ccp-Rev
MKSL.Volt-Battery Load.Inst.1Hour.0.Ccp-Rev

                            

All information presented herein is the property of the government of the United States of America and may be revised or deleted at any time without prior notice. Dissemination of this information without the expressed written consent of the Public Affairs Office, Tulsa District U.S. Army Corps of Engineers is strictly prohibited. These data are gathered electronically and, as presented, have NOT undergone any form of quality control. These data are NOT guaranteed to be valid or correct.